Airport View

Enter AWOS ICAO identifier for current METAR.

ex. KFNL

KIZG 112154Z AUTO 19004KT 10SM CLR M03/M13 A3016 RMK AO2 SLP221 T10281133

11 Dec 2019 22:03

Frequency: 135.775

Phone: 207-935-2882

Other Area AWOS: KMWN - KLEW - KLCI - KHIE

TAF KHIE 111720Z 1118/1218 00000KT P6SM FEW250 FM120000 27010KT P6SM BKN030 TEMPO 1200/1203 1SM -SHSN BKN015 FM120500 27015G24KT P6SM SKC